createdAt,value
2022-11-28T00:02:01.585Z,-26.55
2022-11-28T00:04:30.892Z,-26.58
2022-11-28T00:07:00.170Z,-26.57
2022-11-28T00:09:29.788Z,-26.52
2022-11-28T00:11:58.919Z,-26.25
2022-11-28T00:14:29.602Z,-26.17
2022-11-28T00:16:59.008Z,-26.25
2022-11-28T00:19:28.117Z,-26.03
2022-11-28T00:21:57.249Z,-25.98
2022-11-28T00:24:26.613Z,-25.94
2022-11-28T00:26:56.883Z,-25.83
2022-11-28T00:29:26.022Z,-25.76
2022-11-28T00:31:56.773Z,-25.69
2022-11-28T00:34:25.852Z,-25.63
2022-11-28T00:36:54.954Z,-25.64
2022-11-28T00:39:24.139Z,-25.52
2022-11-28T00:41:53.316Z,-25.63
2022-11-28T00:44:22.526Z,-25.41
2022-11-28T00:46:51.675Z,-25.34
2022-11-28T00:49:22.338Z,-25.34
2022-11-28T00:51:51.615Z,-25.36
2022-11-28T00:54:20.724Z,-25.26
2022-11-28T00:56:50.010Z,-25.12
2022-11-28T00:59:19.143Z,-25.07
2022-11-28T01:01:48.432Z,-25.02
2022-11-28T01:04:19.059Z,-25.03
2022-11-28T01:06:51.436Z,-24.90
2022-11-28T01:09:22.879Z,-24.97
2022-11-28T01:11:54.064Z,-24.82
2022-11-28T01:14:24.740Z,-25.01
2022-11-28T01:16:54.318Z,-24.77
2022-11-28T01:19:23.413Z,-25.38
2022-11-28T01:21:54.015Z,-24.73
2022-11-28T01:24:23.197Z,-24.55
2022-11-28T01:26:52.340Z,-24.51
2022-11-28T01:29:21.500Z,-24.44
2022-11-28T01:31:50.757Z,-24.41
2022-11-28T01:34:19.958Z,-24.42
2022-11-28T01:36:49.008Z,-24.32
2022-11-28T01:39:19.697Z,-24.28
2022-11-28T01:41:48.905Z,-24.48
2022-11-28T01:44:54.769Z,-24.26
2022-11-28T01:47:27.792Z,-24.22
2022-11-28T01:49:57.779Z,-24.23
2022-11-28T01:52:27.033Z,-24.24
2022-11-28T01:55:02.086Z,-24.27
2022-11-28T01:57:31.619Z,-24.60
2022-11-28T02:00:06.037Z,-24.31
2022-11-28T02:02:39.578Z,-24.36
2022-11-28T02:05:09.394Z,-24.32
2022-11-28T02:07:39.797Z,-24.34
2022-11-28T02:10:13.986Z,-24.37
2022-11-28T02:12:59.303Z,-24.57
2022-11-28T02:15:59.566Z,-24.40
2022-11-28T02:18:50.169Z,-24.60
2022-11-28T02:21:56.224Z,-24.42
2022-11-28T02:24:58.098Z,-24.43
2022-11-28T02:28:20.728Z,-24.49
2022-11-28T02:31:00.164Z,-24.46
2022-11-28T02:33:33.993Z,-24.33
2022-11-28T02:36:12.262Z,-24.15
2022-11-28T02:39:05.614Z,-24.04
2022-11-28T02:41:41.194Z,-23.96
2022-11-28T02:44:15.733Z,-23.85
2022-11-28T02:46:53.833Z,-23.78
2022-11-28T02:49:31.496Z,-23.67
2022-11-28T02:52:06.465Z,-23.52
2022-11-28T02:54:36.111Z,-23.54
2022-11-28T02:57:05.381Z,-23.45
2022-11-28T02:59:47.376Z,-23.37
2022-11-28T03:02:21.717Z,-23.34
2022-11-28T03:05:01.887Z,-23.21
2022-11-28T03:07:48.403Z,-23.28
2022-11-28T03:10:28.720Z,-22.99
2022-11-28T03:13:07.048Z,-22.97
2022-11-28T03:15:46.310Z,-22.83
2022-11-28T03:18:20.158Z,-22.73
2022-11-28T03:20:56.833Z,-22.67
2022-11-28T03:23:33.671Z,-22.58
2022-11-28T03:26:08.749Z,-22.55
2022-11-28T03:28:43.867Z,-22.52
2022-11-28T03:31:17.426Z,-22.54
2022-11-28T03:33:50.863Z,-22.71
2022-11-28T03:36:24.951Z,-22.66
2022-11-28T03:39:01.287Z,-22.49
2022-11-28T03:41:35.096Z,-22.42
2022-11-28T03:44:08.689Z,-22.20
2022-11-28T03:46:40.748Z,-22.11
2022-11-28T03:49:13.070Z,-22.06
2022-11-28T03:51:48.713Z,-22.06
2022-11-28T03:54:23.015Z,-21.90
2022-11-28T03:56:59.137Z,-21.71
2022-11-28T03:59:34.660Z,-21.63
2022-11-28T04:02:08.419Z,-21.47
2022-11-28T04:04:47.452Z,-21.51
2022-11-28T04:07:26.917Z,-21.43
2022-11-28T04:10:02.302Z,-21.55
2022-11-28T04:12:41.809Z,-21.35
2022-11-28T04:15:17.094Z,-21.21
2022-11-28T04:17:52.812Z,-21.16
2022-11-28T04:20:30.671Z,-21.15
2022-11-28T04:23:06.446Z,-21.05
2022-11-28T04:25:38.983Z,-21.15
2022-11-28T04:28:13.274Z,-20.97
2022-11-28T04:30:46.425Z,-20.89
2022-11-28T04:33:18.839Z,-20.81
2022-11-28T04:35:51.908Z,-20.95
2022-11-28T04:38:24.620Z,-20.86
2022-11-28T04:40:56.962Z,-20.86
2022-11-28T04:43:30.590Z,-20.74
2022-11-28T04:46:05.925Z,-20.57
2022-11-28T04:48:35.566Z,-20.47
2022-11-28T04:51:17.207Z,-20.38
2022-11-28T04:53:52.473Z,-20.29
2022-11-28T04:56:25.661Z,-20.33
2022-11-28T04:58:56.758Z,-20.48
2022-11-28T05:01:29.214Z,-20.19
2022-11-28T05:03:59.092Z,-20.26
2022-11-28T05:06:34.471Z,-20.39
2022-11-28T05:09:08.728Z,-20.45
2022-11-28T05:11:37.911Z,-20.65
2022-11-28T05:14:07.108Z,-20.68
2022-11-28T05:16:36.996Z,-20.61
2022-11-28T05:19:06.295Z,-20.59
2022-11-28T05:21:35.547Z,-20.50
2022-11-28T05:24:06.674Z,-20.50
2022-11-28T05:26:36.261Z,-20.37
2022-11-28T05:29:05.873Z,-20.29
2022-11-28T05:31:35.255Z,-20.24
2022-11-28T05:34:04.469Z,-20.19
2022-11-28T05:36:33.671Z,-20.07
2022-11-28T05:39:02.960Z,-19.86
2022-11-28T05:41:34.826Z,-19.78
2022-11-28T05:44:04.083Z,-19.66
2022-11-28T05:46:33.218Z,-19.50
2022-11-28T05:49:02.365Z,-19.45
2022-11-28T05:51:31.576Z,-19.42
2022-11-28T05:54:00.719Z,-19.42
2022-11-28T05:56:29.956Z,-19.42
2022-11-28T05:59:00.842Z,-19.57
2022-11-28T06:01:31.549Z,-19.27
2022-11-28T06:04:02.722Z,-19.19
2022-11-28T06:06:33.712Z,-19.15
2022-11-28T06:09:07.773Z,-19.33
2022-11-28T06:11:37.630Z,-19.16
2022-11-28T06:14:11.360Z,-19.24
2022-11-28T06:16:40.697Z,-19.10
2022-11-28T06:19:10.040Z,-19.11
2022-11-28T06:21:41.799Z,-18.98
2022-11-28T06:24:12.539Z,-18.96
2022-11-28T06:26:41.775Z,-19.00
2022-11-28T06:29:12.648Z,-19.18
2022-11-28T06:31:42.162Z,-19.00
2022-11-28T06:34:13.066Z,-18.93
2022-11-28T06:36:42.491Z,-18.88
2022-11-28T06:39:15.288Z,-18.77
2022-11-28T06:41:45.287Z,-18.80
2022-11-28T06:44:23.179Z,-18.60
2022-11-28T06:46:52.607Z,-18.55
2022-11-28T06:49:21.988Z,-18.54
2022-11-28T06:51:54.150Z,-18.51
2022-11-28T06:54:23.542Z,-18.55
2022-11-28T06:56:52.917Z,-18.38
2022-11-28T06:59:23.719Z,-18.39
2022-11-28T07:01:53.172Z,-18.30
2022-11-28T07:04:22.929Z,-18.21
2022-11-28T07:06:55.192Z,-18.15
2022-11-28T07:09:24.534Z,-18.14
2022-11-28T07:11:54.060Z,-18.13
2022-11-28T07:14:24.942Z,-18.12
2022-11-28T07:16:54.440Z,-18.15
2022-11-28T07:19:23.861Z,-18.32
2022-11-28T07:21:53.539Z,-18.29
2022-11-28T07:24:22.912Z,-18.32
2022-11-28T07:26:55.336Z,-18.30
2022-11-28T07:29:31.879Z,-18.28
2022-11-28T07:32:01.525Z,-18.30
2022-11-28T07:34:33.937Z,-18.33
2022-11-28T07:37:03.893Z,-18.29
2022-11-28T07:39:34.741Z,-18.24
2022-11-28T07:42:05.860Z,-18.33
2022-11-28T07:44:36.793Z,-18.29
2022-11-28T07:47:06.383Z,-18.35
2022-11-28T07:49:35.861Z,-18.45
2022-11-28T07:52:05.268Z,-18.54
2022-11-28T07:54:34.609Z,-18.62
2022-11-28T07:57:12.088Z,-18.64
2022-11-28T07:59:44.232Z,-18.80
2022-11-28T08:02:13.971Z,-18.85
2022-11-28T08:04:49.356Z,-18.85
2022-11-28T08:07:20.170Z,-18.88
2022-11-28T08:09:49.416Z,-18.92
2022-11-28T08:12:18.634Z,-18.96
2022-11-28T08:14:49.292Z,-18.99
2022-11-28T08:17:18.548Z,-19.02
2022-11-28T08:19:50.859Z,-19.03
2022-11-28T08:22:25.145Z,-19.00
2022-11-28T08:24:54.313Z,-19.00
2022-11-28T08:27:28.291Z,-19.06
2022-11-28T08:29:58.979Z,-18.99
2022-11-28T08:32:28.181Z,-19.08
2022-11-28T08:34:57.335Z,-18.94
2022-11-28T08:37:26.979Z,-18.99
2022-11-28T08:39:56.140Z,-18.95
2022-11-28T08:42:25.302Z,-18.89
2022-11-28T08:44:54.351Z,-19.00
2022-11-28T08:47:25.065Z,-19.03
2022-11-28T08:49:54.276Z,-19.05
2022-11-28T08:52:24.802Z,-19.11
2022-11-28T08:54:59.307Z,-19.14
2022-11-28T08:57:28.507Z,-19.19
2022-11-28T08:59:57.729Z,-19.20
2022-11-28T09:02:28.302Z,-19.42
2022-11-28T09:04:57.425Z,-19.34
2022-11-28T09:07:26.647Z,-19.37
2022-11-28T09:09:55.908Z,-19.53
2022-11-28T09:12:25.000Z,-19.31
2022-11-28T09:14:54.108Z,-19.29
2022-11-28T09:17:23.965Z,-19.25
2022-11-28T09:19:54.582Z,-19.39
2022-11-28T09:22:23.765Z,-19.40
2022-11-28T09:24:52.936Z,-19.27
2022-11-28T09:27:22.069Z,-19.48
2022-11-28T09:29:51.269Z,-19.52
2022-11-28T09:32:20.444Z,-19.37
2022-11-28T09:34:51.551Z,-19.41
2022-11-28T09:37:22.208Z,-19.52
2022-11-28T09:40:12.035Z,-19.45
2022-11-28T09:42:46.095Z,-19.46
2022-11-28T09:45:18.952Z,-19.39
2022-11-28T09:47:52.261Z,-19.54
2022-11-28T09:50:24.392Z,-19.48
2022-11-28T09:53:02.044Z,-19.49
2022-11-28T09:55:37.087Z,-19.52
2022-11-28T09:58:13.534Z,-19.74
2022-11-28T10:00:54.094Z,-19.56
2022-11-28T10:03:45.540Z,-19.63
2022-11-28T10:06:20.519Z,-19.58
2022-11-28T10:09:20.325Z,-19.68
2022-11-28T10:12:01.727Z,-19.89
2022-11-28T10:15:10.574Z,-19.92
2022-11-28T10:17:50.913Z,-20.13
2022-11-28T10:20:25.467Z,-20.36
2022-11-28T10:22:59.428Z,-20.53
2022-11-28T10:25:32.918Z,-20.67
2022-11-28T10:28:03.969Z,-20.89
2022-11-28T10:30:38.534Z,-20.70
2022-11-28T10:33:18.253Z,-20.76
